Time;durP1;ratioP1;P1;durP2;ratioP2;P2;SDS_P1;SDS_P2;PMS_P1;PMS_P2;Temp;Humidity;BMP_temperature;BMP_pressure;BME280_temperature;BME280_humidity;BME280_pressure;Samples;Min_cycle;Max_cycle;Signal;HPM_P1;HPM_P2
2022/06/30 00:00:58;;;;;;;;;;;;;;;24.06;51.46;99396.53;2081556;28;21132;-57
2022/06/30 00:01:58;;;;;;;;;;;;;;;24.07;51.58;99381.72;2093592;28;19915;-58
2022/06/30 00:02:58;;;;;;;;;;;;;;;24.06;51.49;99369.00;2087054;28;19923;-58
2022/06/30 00:03:59;;;;;;;;;;;;;;;24.06;51.54;99360.75;2086728;28;20295;-59
2022/06/30 00:04:59;;;;;;;;;;;;;;;24.06;51.50;99347.00;2084639;28;19909;-58
2022/06/30 00:05:59;;;;;;;;;;;;;;;24.05;51.51;99357.13;2087685;28;19916;-58
2022/06/30 00:07:00;;;;;;;;;;;;;;;24.05;51.61;99353.53;2093484;28;19923;-59
2022/06/30 00:08:00;;;;;;;;;;;;;;;24.04;51.57;99360.94;2090261;28;19913;-58
2022/06/30 00:09:00;;;;;;;;;;;;;;;24.05;51.65;99367.28;2093377;28;20430;-58
2022/06/30 00:10:01;;;;;;;;;;;;;;;24.06;51.48;99380.03;2084930;28;19965;-58
2022/06/30 00:11:06;;;;;;;;;;;;;;;24.05;51.50;99372.78;2089093;28;19995;-58
2022/06/30 00:12:07;;;;;;;;;;;;;;;24.05;51.64;99373.63;2082223;28;19995;-59
2022/06/30 00:13:07;;;;;;;;;;;;;;;24.06;51.68;99382.78;2084013;28;19916;-58
2022/06/30 00:14:09;;;;;;;;;;;;;;;24.06;51.55;99391.03;2078771;28;19913;-58
2022/06/30 00:15:09;;;;;;;;;;;;;;;24.06;51.55;99408.41;2083094;28;19912;-58
2022/06/30 00:16:09;;;;;;;;;;;;;;;24.07;51.86;99414.75;2091961;28;19930;-59
2022/06/30 00:17:10;;;;;;;;;;;;;;;24.06;51.63;99411.16;2088849;28;19923;-58
2022/06/30 00:18:10;;;;;;;;;;;;;;;24.06;51.69;99413.06;2092668;28;19951;-58
2022/06/30 00:19:10;;;;;;;;;;;;;;;24.06;51.87;99410.31;2092666;28;19920;-58
2022/06/30 00:20:11;;;;;;;;;;;;;;;24.05;51.69;99406.69;2093014;28;20723;-59
2022/06/30 00:21:11;;;;;;;;;;;;;;;24.05;51.70;99406.69;2093387;28;20251;-58
2022/06/30 00:22:12;;;;;;;;;;;;;;;24.05;51.69;99416.84;2091152;28;19919;-58
2022/06/30 00:23:12;;;;;;;;;;;;;;;24.04;51.80;99407.75;2094443;28;19916;-58
2022/06/30 00:24:12;;;;;;;;;;;;;;;24.04;51.83;99409.66;2092013;28;19916;-58
2022/06/30 00:25:13;;;;;;;;;;;;;;;24.04;51.83;99412.41;2094828;28;20342;-58
2022/06/30 00:26:13;;;;;;;;;;;;;;;24.04;51.76;99406.91;2087099;28;20392;-58
2022/06/30 00:27:14;;;;;;;;;;;;;;;24.05;51.78;99403.06;2090365;28;19912;-58
2022/06/30 00:28:15;;;;;;;;;;;;;;;24.04;51.82;99405.00;2097503;28;20049;-58
2022/06/30 00:29:15;;;;;;;;;;;;;;;24.04;51.78;99402.22;2093662;28;20094;-57
2022/06/30 00:30:15;;;;;;;;;;;;;;;24.04;51.79;99404.16;2093973;28;19978;-57
2022/06/30 00:31:16;;;;;;;;;;;;;;;24.05;51.93;99400.31;2094653;28;19966;-56
2022/06/30 00:32:16;;;;;;;;;;;;;;;24.04;51.84;99395.88;2089688;28;19917;-59
2022/06/30 00:33:17;;;;;;;;;;;;;;;24.04;51.81;99398.63;2079396;28;19916;-58
2022/06/30 00:34:17;;;;;;;;;;;;;;;24.04;51.94;99387.63;2089801;28;20333;-59
2022/06/30 00:35:18;;;;;;;;;;;;;;;24.04;51.83;99387.63;2091980;28;19916;-58
2022/06/30 00:36:18;;;;;;;;;;;;;;;24.04;51.80;99382.13;2089342;28;20431;-59
2022/06/30 00:37:18;;;;;;;;;;;;;;;24.04;51.93;99379.38;2097211;28;19916;-59
2022/06/30 00:38:19;;;;;;;;;;;;;;;24.03;51.86;99356.47;2088815;28;19920;-58
2022/06/30 00:39:19;;;;;;;;;;;;;;;24.04;51.90;99354.59;2094103;28;19916;-58
2022/06/30 00:40:19;;;;;;;;;;;;;;;24.03;51.82;99353.72;2095004;28;19965;-58
2022/06/30 00:41:20;;;;;;;;;;;;;;;24.03;51.92;99352.88;2097822;28;20266;-58
2022/06/30 00:42:23;;;;;;;;;;;;;;;24.04;51.89;99349.09;2089976;28;19989;-64
2022/06/30 00:43:24;;;;;;;;;;;;;;;24.03;51.88;99358.38;2081915;28;20134;-59
2022/06/30 00:44:27;;;;;;;;;;;;;;;24.04;51.90;99349.09;2081886;28;20116;-62
2022/06/30 00:45:27;;;;;;;;;;;;;;;24.04;51.81;99347.19;2086297;28;20276;-60
2022/06/30 00:46:28;;;;;;;;;;;;;;;24.04;51.83;99340.81;2090659;28;19913;-60
2022/06/30 00:47:28;;;;;;;;;;;;;;;24.04;51.98;99332.56;2086177;28;19966;-59
2022/06/30 00:48:29;;;;;;;;;;;;;;;24.03;51.89;99336.34;2077170;28;19917;-59
2022/06/30 00:49:29;;;;;;;;;;;;;;;24.04;51.89;99332.56;2083868;28;19923;-59
2022/06/30 00:50:29;;;;;;;;;;;;;;;24.03;51.86;99331.69;2088810;28;19977;-59
2022/06/30 00:51:30;;;;;;;;;;;;;;;24.03;51.95;99325.34;2088656;28;20400;-59
2022/06/30 00:52:33;;;;;;;;;;;;;;;24.02;51.88;99321.75;2091048;28;19916;-59
2022/06/30 00:53:36;;;;;;;;;;;;;;;24.03;51.76;99311.56;2092008;28;21300;-60
2022/06/30 00:54:38;;;;;;;;;;;;;;;24.03;51.94;99312.41;2081434;28;20095;-59
2022/06/30 00:55:39;;;;;;;;;;;;;;;24.03;51.91;99304.16;2078552;28;19956;-59
2022/06/30 00:56:41;;;;;;;;;;;;;;;24.04;51.87;99313.28;2091760;28;20006;-59
2022/06/30 00:57:42;;;;;;;;;;;;;;;24.03;51.87;99312.41;2097443;28;20550;-58
2022/06/30 00:58:43;;;;;;;;;;;;;;;24.03;51.92;99314.34;2088442;28;19955;-59
2022/06/30 00:59:44;;;;;;;;;;;;;;;24.03;52.06;99308.81;2093173;28;20223;-59
2022/06/30 01:00:48;;;;;;;;;;;;;;;24.03;51.94;99308.81;2092205;28;19941;-59
2022/06/30 01:01:48;;;;;;;;;;;;;;;24.02;51.81;99307.97;2095061;28;19961;-60
2022/06/30 01:02:50;;;;;;;;;;;;;;;24.02;52.11;99313.47;2092914;28;19919;-60
2022/06/30 01:03:51;;;;;;;;;;;;;;;24.02;52.00;99323.66;2093049;28;19963;-60
2022/06/30 01:04:55;;;;;;;;;;;;;;;24.02;52.14;99309.88;2087767;28;19919;-60
2022/06/30 01:05:55;;;;;;;;;;;;;;;24.02;52.05;99318.16;2090357;28;20369;-60
2022/06/30 01:06:56;;;;;;;;;;;;;;;24.03;52.10;99322.59;2093720;28;19908;-59
2022/06/30 01:07:56;;;;;;;;;;;;;;;24.01;52.06;99317.31;2089875;28;20003;-59
2022/06/30 01:08:57;;;;;;;;;;;;;;;24.02;52.03;99312.63;2085266;28;20248;-59
2022/06/30 01:12:49;;;;;;;;;;;;;;;24.01;52.03;99300.78;2067986;28;19916;-59
2022/06/30 01:13:50;;;;;;;;;;;;;;;24.02;52.05;99291.47;2085712;28;20202;-60
2022/06/30 01:14:52;;;;;;;;;;;;;;;24.03;52.12;99303.31;2091462;28;20340;-60
2022/06/30 01:15:52;;;;;;;;;;;;;;;24.02;52.12;99307.13;2093923;28;19969;-60
2022/06/30 01:16:52;;;;;;;;;;;;;;;24.02;52.04;99307.13;2092952;28;19915;-59
2022/06/30 01:17:53;;;;;;;;;;;;;;;24.02;52.11;99309.88;2092180;28;19951;-59
2022/06/30 01:18:54;;;;;;;;;;;;;;;24.03;52.07;99314.34;2093668;28;19919;-61
2022/06/30 01:19:54;;;;;;;;;;;;;;;24.02;52.06;99307.13;2093396;28;20302;-60
2022/06/30 01:20:55;;;;;;;;;;;;;;;24.03;52.05;99319.84;2086179;28;21977;-59
2022/06/30 01:21:59;;;;;;;;;;;;;;;24.03;52.05;99314.34;2090368;28;19925;-60
2022/06/30 01:23:01;;;;;;;;;;;;;;;24.03;52.00;99314.34;2091815;28;19970;-59
2022/06/30 01:24:01;;;;;;;;;;;;;;;24.02;52.10;99312.63;2088843;28;20233;-59
2022/06/30 01:25:02;;;;;;;;;;;;;;;24.02;52.11;99307.13;2090118;28;19916;-62
2022/06/30 01:26:03;;;;;;;;;;;;;;;24.02;52.04;99312.63;2085964;28;20018;-59
2022/06/30 01:27:03;;;;;;;;;;;;;;;24.02;52.15;99307.13;2084401;28;19923;-60
2022/06/30 01:28:04;;;;;;;;;;;;;;;24.02;52.10;99302.47;2079890;28;20370;-59
2022/06/30 01:29:07;;;;;;;;;;;;;;;24.01;52.23;99299.91;2089974;28;20390;-59
2022/06/30 01:30:08;;;;;;;;;;;;;;;24.00;52.30;99314.75;2083383;28;20354;-60
2022/06/30 01:31:08;;;;;;;;;;;;;;;24.01;52.33;99316.44;2079679;28;19916;-59
2022/06/30 01:32:09;;;;;;;;;;;;;;;24.01;52.44;99321.94;2087816;28;19913;-59
2022/06/30 01:33:09;;;;;;;;;;;;;;;24.01;52.44;99321.94;2091386;28;19923;-59
2022/06/30 01:34:09;;;;;;;;;;;;;;;24.01;52.43;99325.56;2093123;28;19916;-60
2022/06/30 01:35:10;;;;;;;;;;;;;;;24.01;52.33;99322.81;2087223;28;19916;-60
2022/06/30 01:36:10;;;;;;;;;;;;;;;24.01;52.43;99331.06;2089663;28;19916;-60
2022/06/30 01:37:11;;;;;;;;;;;;;;;24.02;52.30;99323.66;2092494;28;20193;-60
2022/06/30 01:38:11;;;;;;;;;;;;;;;24.01;52.31;99320.06;2093795;28;19923;-60
2022/06/30 01:39:11;;;;;;;;;;;;;;;24.02;52.31;99320.91;2094344;28;19923;-60
2022/06/30 01:40:12;;;;;;;;;;;;;;;24.02;52.30;99323.66;2084392;28;19935;-59
2022/06/30 01:41:12;;;;;;;;;;;;;;;24.02;52.32;99310.72;2084005;28;19924;-60
2022/06/30 01:42:13;;;;;;;;;;;;;;;24.01;52.30;99314.56;2091663;28;19924;-60
2022/06/30 01:43:14;;;;;;;;;;;;;;;24.02;52.31;99312.63;2094143;28;19916;-61
2022/06/30 01:44:14;;;;;;;;;;;;;;;24.02;52.34;99318.16;2083357;28;20161;-61
2022/06/30 01:45:14;;;;;;;;;;;;;;;24.02;52.22;99312.63;2083147;28;19908;-59
2022/06/30 01:46:19;;;;;;;;;;;;;;;24.02;52.40;99312.63;2092154;28;19926;-59
2022/06/30 01:47:20;;;;;;;;;;;;;;;24.01;52.37;99306.28;2090491;28;19923;-59
2022/06/30 01:48:20;;;;;;;;;;;;;;;24.02;52.40;99307.13;2092005;28;20476;-59
2022/06/30 01:49:20;;;;;;;;;;;;;;;24.01;52.35;99311.81;2093447;28;19920;-59
2022/06/30 01:50:23;;;;;;;;;;;;;;;24.01;52.30;99305.41;2093728;28;19912;-59
2022/06/30 01:51:23;;;;;;;;;;;;;;;24.02;52.28;99307.13;2090010;28;19923;-59
2022/06/30 01:52:24;;;;;;;;;;;;;;;24.02;52.29;99307.97;2090437;28;20642;-60
2022/06/30 01:53:24;;;;;;;;;;;;;;;24.01;52.38;99311.81;2092248;28;20562;-61
2022/06/30 01:54:24;;;;;;;;;;;;;;;24.01;52.38;99311.81;2091817;28;19973;-60
2022/06/30 01:55:25;;;;;;;;;;;;;;;24.01;52.26;99322.81;2093283;28;20093;-59
2022/06/30 01:56:26;;;;;;;;;;;;;;;24.01;52.28;99322.81;2094542;28;20184;-60
2022/06/30 01:57:26;;;;;;;;;;;;;;;24.00;52.36;99320.25;2093642;28;19912;-60
2022/06/30 01:58:26;;;;;;;;;;;;;;;24.00;52.39;99329.34;2090359;28;19991;-59
2022/06/30 01:59:27;;;;;;;;;;;;;;;24.00;52.31;99314.75;2090955;28;19912;-59
2022/06/30 02:00:27;;;;;;;;;;;;;;;24.00;52.46;99320.25;2093514;28;19916;-59
2022/06/30 02:01:28;;;;;;;;;;;;;;;24.00;52.55;99314.75;2089856;28;19920;-59
2022/06/30 02:02:28;;;;;;;;;;;;;;;24.00;52.58;99317.50;2093065;28;19931;-60
2022/06/30 02:03:28;;;;;;;;;;;;;;;23.99;52.77;99318.56;2088278;28;19913;-59
2022/06/30 02:04:47;;;;;;;;;;;;;;;23.99;52.70;99321.31;2089643;28;20364;-60
2022/06/30 02:05:47;;;;;;;;;;;;;;;24.00;52.73;99323.00;2086326;28;20614;-59
2022/06/30 02:06:47;;;;;;;;;;;;;;;23.99;52.81;99324.91;2091937;28;19912;-60
2022/06/30 02:07:48;;;;;;;;;;;;;;;23.99;52.67;99324.06;2091141;28;20009;-59
2022/06/30 02:08:48;;;;;;;;;;;;;;;24.00;52.77;99325.75;2094322;28;19916;-60
2022/06/30 02:09:51;;;;;;;;;;;;;;;23.99;52.74;99322.16;2088912;28;19914;-59
2022/06/30 02:10:51;;;;;;;;;;;;;;;24.01;52.66;99327.44;2091393;28;20044;-59
2022/06/30 02:12:44;;;;;;;;;;;;;;;24.00;52.69;99328.50;2091452;28;19924;-61
2022/06/30 02:13:12;;;;;;;;;;;;;;;24.00;52.63;99331.25;2090875;28;19972;-60
2022/06/30 02:14:12;;;;;;;;;;;;;;;24.00;52.49;99326.59;2091833;28;20230;-60
2022/06/30 02:15:13;;;;;;;;;;;;;;;24.00;52.65;99336.75;2092838;28;19994;-59
2022/06/30 02:16:14;;;;;;;;;;;;;;;24.00;52.66;99339.50;2090799;28;20578;-59
2022/06/30 02:17:14;;;;;;;;;;;;;;;24.00;52.58;99329.34;2090274;28;20503;-59
2022/06/30 02:18:14;;;;;;;;;;;;;;;24.00;52.71;99325.75;2091237;28;19969;-60
2022/06/30 02:19:15;;;;;;;;;;;;;;;24.00;52.66;99334.00;2084848;28;19916;-59
2022/06/30 02:20:20;;;;;;;;;;;;;;;24.00;52.55;99323.00;2083943;28;19935;-59
2022/06/30 02:21:21;;;;;;;;;;;;;;;24.00;52.60;99334.00;2092929;28;20186;-60
2022/06/30 02:22:21;;;;;;;;;;;;;;;24.00;52.67;99336.75;2092974;28;19932;-59
2022/06/30 02:23:21;;;;;;;;;;;;;;;24.00;52.62;99342.25;2096552;28;19915;-60
2022/06/30 02:24:22;;;;;;;;;;;;;;;24.00;52.54;99336.75;2094821;28;19916;-60
2022/06/30 02:25:26;;;;;;;;;;;;;;;24.00;52.60;99336.75;2084557;28;19917;-59
2022/06/30 02:26:27;;;;;;;;;;;;;;;24.00;52.59;99331.25;2081290;28;20370;-59
2022/06/30 02:27:28;;;;;;;;;;;;;;;23.99;52.62;99322.16;2093810;28;19927;-59
2022/06/30 02:28:28;;;;;;;;;;;;;;;24.00;52.63;99325.75;2086929;28;19917;-59
2022/06/30 02:29:28;;;;;;;;;;;;;;;24.01;52.66;99321.94;2085464;28;20228;-59
2022/06/30 02:30:29;;;;;;;;;;;;;;;23.99;52.53;99324.06;2091406;28;20228;-60
2022/06/30 02:31:31;;;;;;;;;;;;;;;24.00;52.61;99336.75;2081324;28;19920;-59
2022/06/30 02:32:31;;;;;;;;;;;;;;;24.00;52.58;99325.75;2085155;28;19916;-60
2022/06/30 02:33:32;;;;;;;;;;;;;;;24.00;52.62;99325.75;2091923;28;20003;-59
2022/06/30 02:34:32;;;;;;;;;;;;;;;24.00;52.65;99325.75;2091749;28;19915;-60
2022/06/30 02:35:32;;;;;;;;;;;;;;;23.99;52.64;99316.66;2076713;28;20561;-60
2022/06/30 02:36:33;;;;;;;;;;;;;;;23.99;52.67;99318.56;2081933;28;19923;-60
2022/06/30 02:37:33;;;;;;;;;;;;;;;23.99;52.60;99304.78;2092222;28;20111;-60
2022/06/30 02:38:34;;;;;;;;;;;;;;;23.98;52.58;99305.81;2094351;28;19943;-60
2022/06/30 02:39:34;;;;;;;;;;;;;;;23.96;52.71;99309.66;2094063;28;20413;-60
2022/06/30 02:40:34;;;;;;;;;;;;;;;23.96;52.96;99301.38;2091137;28;19981;-60
2022/06/30 02:41:35;;;;;;;;;;;;;;;23.96;52.81;99298.63;2093328;28;19909;-60
2022/06/30 02:42:36;;;;;;;;;;;;;;;23.98;52.83;99294.81;2097370;28;20207;-60
2022/06/30 02:43:36;;;;;;;;;;;;;;;23.97;52.91;99293.97;2095880;28;19921;-60
2022/06/30 02:44:37;;;;;;;;;;;;;;;23.98;52.83;99289.31;2093450;28;19929;-60
2022/06/30 02:45:37;;;;;;;;;;;;;;;23.98;52.83;99290.16;2090254;28;19922;-60
2022/06/30 02:46:37;;;;;;;;;;;;;;;23.96;52.84;99292.28;2086665;28;19913;-60
2022/06/30 02:47:42;;;;;;;;;;;;;;;23.97;52.85;99293.97;2092890;28;19916;-58
2022/06/30 02:48:42;;;;;;;;;;;;;;;23.97;52.87;99302.22;2089696;28;19916;-60
2022/06/30 02:49:42;;;;;;;;;;;;;;;23.98;52.82;99294.81;2092714;28;21220;-59
2022/06/30 02:50:45;;;;;;;;;;;;;;;23.98;52.85;99303.91;2082222;28;19998;-60
2022/06/30 02:51:46;;;;;;;;;;;;;;;23.98;52.84;99305.81;2084498;28;20007;-59
2022/06/30 02:52:46;;;;;;;;;;;;;;;23.96;52.77;99304.13;2094527;28;20252;-59
2022/06/30 02:53:46;;;;;;;;;;;;;;;23.98;52.79;99311.34;2090650;28;19923;-60
2022/06/30 02:54:47;;;;;;;;;;;;;;;23.98;52.86;99316.84;2093295;28;20214;-59
2022/06/30 02:55:48;;;;;;;;;;;;;;;23.97;52.85;99316.00;2085383;28;20012;-60
2022/06/30 02:56:49;;;;;;;;;;;;;;;23.98;52.82;99306.66;2078719;28;19919;-59
2022/06/30 02:57:49;;;;;;;;;;;;;;;23.98;52.82;99312.19;2092625;28;19920;-59
2022/06/30 02:58:50;;;;;;;;;;;;;;;23.98;52.85;99305.81;2080980;28;19908;-60
2022/06/30 02:59:50;;;;;;;;;;;;;;;23.96;52.84;99309.66;2086041;28;19908;-59
2022/06/30 03:00:51;;;;;;;;;;;;;;;23.98;52.74;99314.09;2087377;28;20111;-58
2022/06/30 03:01:51;;;;;;;;;;;;;;;23.98;52.69;99317.69;2089149;28;19920;-59
2022/06/30 03:02:52;;;;;;;;;;;;;;;23.98;52.84;99317.69;2082769;28;19969;-59
2022/06/30 03:03:52;;;;;;;;;;;;;;;23.98;52.81;99306.66;2082342;28;19966;-59
2022/06/30 03:04:52;;;;;;;;;;;;;;;23.98;52.85;99316.84;2086048;28;20595;-59
2022/06/30 03:05:53;;;;;;;;;;;;;;;23.99;52.82;99307.53;2090910;28;20239;-59
2022/06/30 03:06:55;;;;;;;;;;;;;;;23.98;52.85;99316.84;2084968;28;19912;-60
2022/06/30 03:07:55;;;;;;;;;;;;;;;23.98;52.89;99316.84;2083193;28;20193;-59
2022/06/30 03:08:56;;;;;;;;;;;;;;;23.97;52.73;99324.25;2091337;28;19926;-59
2022/06/30 03:09:56;;;;;;;;;;;;;;;23.98;52.84;99338.84;2093885;28;19912;-59
2022/06/30 03:10:56;;;;;;;;;;;;;;;23.98;52.84;99327.84;2090860;28;19920;-59
2022/06/30 03:11:57;;;;;;;;;;;;;;;23.98;52.89;99333.34;2092581;28;20507;-60
2022/06/30 03:12:57;;;;;;;;;;;;;;;23.97;52.85;99332.50;2083022;28;19916;-60
2022/06/30 03:13:57;;;;;;;;;;;;;;;23.96;52.88;99333.56;2075300;28;20034;-60
2022/06/30 03:14:57;;;;;;;;;;;;;;;23.95;52.91;99318.94;2083812;28;19916;-60
2022/06/30 03:15:58;;;;;;;;;;;;;;;23.95;53.02;99321.69;2092129;28;19960;-60
2022/06/30 03:16:58;;;;;;;;;;;;;;;23.95;53.04;99318.09;2093063;28;19922;-60
2022/06/30 03:17:59;;;;;;;;;;;;;;;23.94;53.15;99317.25;2091976;28;19969;-60
2022/06/30 03:18:59;;;;;;;;;;;;;;;23.94;53.08;99306.22;2092392;28;19959;-60
2022/06/30 03:20:00;;;;;;;;;;;;;;;23.94;53.21;99299.88;2093232;28;19923;-60
2022/06/30 03:21:00;;;;;;;;;;;;;;;23.94;53.07;99306.22;2089561;28;20331;-59
2022/06/30 03:22:00;;;;;;;;;;;;;;;23.94;53.27;99305.41;2090944;28;19973;-60
2022/06/30 03:23:00;;;;;;;;;;;;;;;23.94;53.21;99306.22;2086439;28;19952;-60
2022/06/30 03:24:01;;;;;;;;;;;;;;;23.93;53.17;99304.56;2091677;28;20199;-60
2022/06/30 03:25:01;;;;;;;;;;;;;;;23.93;53.29;99299.03;2088811;28;19916;-60
2022/06/30 03:26:02;;;;;;;;;;;;;;;23.93;53.41;99304.56;2091770;28;19924;-60
2022/06/30 03:27:03;;;;;;;;;;;;;;;23.93;53.39;99293.53;2085356;28;19916;-60
2022/06/30 03:28:04;;;;;;;;;;;;;;;23.92;53.56;99297.31;2092647;28;19978;-60
2022/06/30 03:29:05;;;;;;;;;;;;;;;23.92;53.53;99311.09;2097520;28;19954;-60
2022/06/30 03:30:05;;;;;;;;;;;;;;;23.92;53.58;99308.34;2084319;28;19924;-59
2022/06/30 03:31:06;;;;;;;;;;;;;;;23.92;53.57;99297.31;2083165;28;20285;-59
2022/06/30 03:32:06;;;;;;;;;;;;;;;23.93;53.50;99304.56;2093863;28;19923;-60
2022/06/30 03:33:07;;;;;;;;;;;;;;;23.92;53.56;99302.81;2090793;28;19909;-60
2022/06/30 03:34:07;;;;;;;;;;;;;;;23.93;53.62;99310.06;2092301;28;19908;-60
2022/06/30 03:35:09;;;;;;;;;;;;;;;23.92;53.54;99313.00;2085536;28;19924;-60
2022/06/30 03:36:09;;;;;;;;;;;;;;;23.92;53.64;99315.75;2085159;28;19935;-60
2022/06/30 03:37:12;;;;;;;;;;;;;;;23.92;53.53;99310.25;2092664;28;19908;-60
2022/06/30 03:38:13;;;;;;;;;;;;;;;23.92;53.65;99313.00;2085212;28;19917;-60
2022/06/30 03:39:14;;;;;;;;;;;;;;;23.91;53.65;99317.66;2092106;28;19962;-60
2022/06/30 03:40:14;;;;;;;;;;;;;;;23.92;53.58;99326.75;2090443;28;20754;-60
2022/06/30 03:41:14;;;;;;;;;;;;;;;23.92;53.58;99335.00;2087875;28;20687;-60
2022/06/30 03:42:15;;;;;;;;;;;;;;;23.92;53.67;99332.25;2089721;28;19916;-60
2022/06/30 03:43:16;;;;;;;;;;;;;;;23.93;53.65;99337.56;2090459;28;19924;-60
2022/06/30 03:44:16;;;;;;;;;;;;;;;23.92;53.60;99327.59;2091618;28;19927;-60
2022/06/30 03:45:17;;;;;;;;;;;;;;;23.92;53.57;99324.00;2088261;28;20312;-60
2022/06/30 03:46:17;;;;;;;;;;;;;;;23.93;53.67;99331.19;2088579;28;20222;-60
2022/06/30 03:47:18;;;;;;;;;;;;;;;23.92;53.63;99327.59;2090338;28;19908;-59
2022/06/30 03:48:18;;;;;;;;;;;;;;;23.91;53.56;99320.41;2091325;28;19915;-60
2022/06/30 03:49:18;;;;;;;;;;;;;;;23.93;53.51;99336.69;2093398;28;19908;-59
2022/06/30 03:50:19;;;;;;;;;;;;;;;23.93;53.56;99332.06;2090372;28;19908;-60
2022/06/30 03:51:19;;;;;;;;;;;;;;;23.93;53.48;99343.09;2079787;28;19931;-60
2022/06/30 03:52:20;;;;;;;;;;;;;;;23.92;53.49;99346.88;2083660;28;20300;-60
2022/06/30 03:53:20;;;;;;;;;;;;;;;23.93;53.55;99347.72;2096474;28;20596;-61
2022/06/30 03:54:20;;;;;;;;;;;;;;;23.94;53.48;99349.44;2091882;28;20319;-60
2022/06/30 03:55:21;;;;;;;;;;;;;;;23.93;53.48;99345.84;2083831;28;19920;-60
2022/06/30 03:56:21;;;;;;;;;;;;;;;23.93;53.49;99342.22;2080227;28;19952;-60
2022/06/30 03:57:21;;;;;;;;;;;;;;;23.93;53.39;99345.84;2092286;28;20605;-60
2022/06/30 03:58:22;;;;;;;;;;;;;;;23.92;53.47;99341.38;2087172;28;19939;-60
2022/06/30 03:59:22;;;;;;;;;;;;;;;23.92;53.26;99343.28;2094011;28;20947;-60
2022/06/30 04:00:23;;;;;;;;;;;;;;;23.93;53.46;99348.59;2088226;28;20393;-61
2022/06/30 04:01:23;;;;;;;;;;;;;;;23.92;53.33;99346.88;2090295;28;19916;-61
2022/06/30 04:02:24;;;;;;;;;;;;;;;23.93;53.34;99344.97;2087186;28;20532;-61
2022/06/30 04:03:24;;;;;;;;;;;;;;;23.93;53.28;99340.34;2090733;28;20476;-61
2022/06/30 04:04:24;;;;;;;;;;;;;;;23.92;53.37;99335.84;2095136;28;19962;-64
2022/06/30 04:05:25;;;;;;;;;;;;;;;23.93;53.18;99337.56;2093302;28;20446;-61
2022/06/30 04:06:25;;;;;;;;;;;;;;;23.93;53.40;99344.97;2087018;28;19922;-60
2022/06/30 04:07:25;;;;;;;;;;;;;;;23.92;53.37;99357.88;2092034;28;20751;-60
2022/06/30 04:08:26;;;;;;;;;;;;;;;23.92;53.32;99360.63;2093472;28;20364;-60
2022/06/30 04:09:26;;;;;;;;;;;;;;;23.92;53.35;99357.88;2087898;28;19962;-60
2022/06/30 04:10:26;;;;;;;;;;;;;;;23.93;53.35;99359.59;2090920;28;20252;-60
2022/06/30 04:11:26;;;;;;;;;;;;;;;23.92;53.35;99357.88;2094268;28;20253;-62
2022/06/30 04:12:27;;;;;;;;;;;;;;;23.93;53.39;99351.34;2091802;28;19920;-60
2022/06/30 04:13:27;;;;;;;;;;;;;;;23.93;53.31;99350.47;2093596;28;20375;-59
2022/06/30 04:14:27;;;;;;;;;;;;;;;23.92;53.36;99341.38;2088156;28;20347;-59
2022/06/30 04:15:28;;;;;;;;;;;;;;;23.92;53.33;99340.53;2091527;28;20321;-60
2022/06/30 04:16:28;;;;;;;;;;;;;;;23.93;53.36;99347.72;2092501;28;19916;-59
2022/06/30 04:17:28;;;;;;;;;;;;;;;23.93;53.48;99354.09;2092135;28;19939;-60
2022/06/30 04:18:29;;;;;;;;;;;;;;;23.92;53.38;99357.88;2090743;28;19922;-59
2022/06/30 04:19:30;;;;;;;;;;;;;;;23.92;53.43;99351.53;2089442;28;19919;-59
2022/06/30 04:20:30;;;;;;;;;;;;;;;23.91;53.42;99356.19;2089782;28;19920;-60
2022/06/30 04:21:31;;;;;;;;;;;;;;;23.91;53.48;99339.66;2092245;28;20379;-61
2022/06/30 04:22:32;;;;;;;;;;;;;;;23.90;53.54;99337.97;2086198;28;19920;-60
2022/06/30 04:23:32;;;;;;;;;;;;;;;23.91;53.53;99339.66;2091652;28;20352;-60
2022/06/30 04:24:32;;;;;;;;;;;;;;;23.91;53.56;99345.19;2093088;28;19924;-60
2022/06/30 04:25:33;;;;;;;;;;;;;;;23.91;53.59;99350.69;2080998;28;19909;-60
2022/06/30 04:26:33;;;;;;;;;;;;;;;23.91;53.60;99349.81;2084003;28;19916;-60
2022/06/30 04:27:34;;;;;;;;;;;;;;;23.90;53.67;99348.97;2093762;28;19916;-60
2022/06/30 04:28:34;;;;;;;;;;;;;;;23.91;53.61;99350.69;2091274;28;19908;-60
2022/06/30 04:29:34;;;;;;;;;;;;;;;23.90;53.68;99351.72;2093248;28;19958;-60
2022/06/30 04:33:12;;;;;;;;;;;;;;;23.91;53.63;99350.69;2087038;28;19917;-60
2022/06/30 04:34:12;;;;;;;;;;;;;;;23.90;53.64;99348.97;2090905;28;19916;-59
2022/06/30 04:35:13;;;;;;;;;;;;;;;23.91;53.67;99352.56;2089539;28;19966;-59
2022/06/30 04:36:13;;;;;;;;;;;;;;;23.91;53.60;99345.19;2091496;28;19947;-60
2022/06/30 04:37:15;;;;;;;;;;;;;;;23.91;53.60;99350.69;2095049;28;20026;-59
2022/06/30 04:38:16;;;;;;;;;;;;;;;23.91;53.50;99344.31;2091407;28;20250;-60
2022/06/30 04:39:16;;;;;;;;;;;;;;;23.90;53.67;99340.72;2085063;28;19924;-59
2022/06/30 04:41:36;;;;;;;;;;;;;;;23.90;53.59;99337.97;2084744;28;20721;-60
2022/06/30 04:42:36;;;;;;;;;;;;;;;23.90;53.54;99342.63;2085776;28;19920;-60
2022/06/30 04:43:37;;;;;;;;;;;;;;;23.90;53.54;99337.97;2092969;28;19916;-60
2022/06/30 04:44:37;;;;;;;;;;;;;;;23.90;53.67;99343.47;2086234;28;19908;-59
2022/06/30 04:45:37;;;;;;;;;;;;;;;23.91;53.64;99345.19;2095600;28;19916;-60
2022/06/30 04:46:38;;;;;;;;;;;;;;;23.90;53.53;99343.47;2079287;28;19916;-59
2022/06/30 04:47:38;;;;;;;;;;;;;;;23.91;53.60;99350.69;2084271;28;19912;-60
2022/06/30 04:48:39;;;;;;;;;;;;;;;23.90;53.59;99337.97;2092131;28;20062;-60
2022/06/30 04:49:39;;;;;;;;;;;;;;;23.90;53.53;99343.47;2093418;28;20207;-60
2022/06/30 04:50:40;;;;;;;;;;;;;;;23.89;53.67;99341.78;2078714;28;19917;-59
2022/06/30 04:51:40;;;;;;;;;;;;;;;23.89;53.71;99330.75;2083492;28;20564;-59
2022/06/30 04:52:40;;;;;;;;;;;;;;;23.91;53.57;99338.81;2091944;28;19985;-59
2022/06/30 04:53:41;;;;;;;;;;;;;;;23.89;53.64;99336.25;2089558;28;20023;-59
2022/06/30 04:54:41;;;;;;;;;;;;;;;23.90;53.60;99343.47;2084607;28;20702;-59
2022/06/30 04:55:41;;;;;;;;;;;;;;;23.89;53.78;99346.44;2088674;28;20390;-59
2022/06/30 04:56:42;;;;;;;;;;;;;;;23.91;53.68;99347.06;2090141;28;19955;-59
2022/06/30 04:57:42;;;;;;;;;;;;;;;23.89;53.59;99347.28;2089109;28;20238;-60
2022/06/30 04:58:42;;;;;;;;;;;;;;;23.90;53.59;99348.97;2091056;28;19955;-60
2022/06/30 04:59:43;;;;;;;;;;;;;;;23.90;53.57;99359.13;2092217;28;19963;-60
2022/06/30 05:00:43;;;;;;;;;;;;;;;23.89;53.58;99363.78;2090154;28;19970;-60
2022/06/30 05:01:43;;;;;;;;;;;;;;;23.89;53.58;99366.53;2095062;28;19916;-60
2022/06/30 05:02:43;;;;;;;;;;;;;;;23.90;53.66;99361.88;2090797;28;19916;-59
2022/06/30 05:03:44;;;;;;;;;;;;;;;23.90;53.78;99359.13;2085013;28;20936;-59
2022/06/30 05:04:45;;;;;;;;;;;;;;;23.89;53.74;99357.44;2076877;28;19924;-60
2022/06/30 05:05:45;;;;;;;;;;;;;;;23.89;53.78;99362.94;2079916;28;19980;-60
2022/06/30 05:06:45;;;;;;;;;;;;;;;23.89;53.79;99361.03;2092045;28;19951;-60
2022/06/30 05:07:46;;;;;;;;;;;;;;;23.89;53.86;99363.78;2088285;28;20194;-60
2022/06/30 05:08:46;;;;;;;;;;;;;;;23.89;53.88;99368.44;2088427;28;20010;-60
2022/06/30 05:09:47;;;;;;;;;;;;;;;23.89;53.97;99369.28;2093139;28;19908;-60
2022/06/30 05:10:47;;;;;;;;;;;;;;;23.88;53.97;99367.56;2092336;28;20016;-60
2022/06/30 05:11:48;;;;;;;;;;;;;;;23.87;53.90;99360.38;2087877;28;19962;-57
2022/06/30 05:12:48;;;;;;;;;;;;;;;23.89;53.90;99365.69;2095652;28;19920;-58
2022/06/30 05:13:48;;;;;;;;;;;;;;;23.87;53.96;99354.88;2089452;28;19924;-58
2022/06/30 05:14:48;;;;;;;;;;;;;;;23.88;53.93;99359.31;2088605;28;19962;-59
2022/06/30 05:15:49;;;;;;;;;;;;;;;23.87;53.91;99365.88;2088056;28;20265;-58
2022/06/30 05:16:49;;;;;;;;;;;;;;;23.88;53.86;99362.06;2094749;28;19916;-58
2022/06/30 05:17:50;;;;;;;;;;;;;;;23.89;53.92;99361.03;2090399;28;19962;-58
2022/06/30 05:18:50;;;;;;;;;;;;;;;23.88;53.84;99367.56;2092382;28;19913;-57
2022/06/30 05:19:50;;;;;;;;;;;;;;;23.88;53.92;99362.06;2082540;28;19955;-58
2022/06/30 05:20:51;;;;;;;;;;;;;;;23.88;53.84;99362.06;2076445;28;20244;-58
2022/06/30 05:21:51;;;;;;;;;;;;;;;23.87;54.00;99357.63;2084126;28;20343;-58
2022/06/30 05:22:52;;;;;;;;;;;;;;;23.87;53.79;99352.13;2085037;28;20215;-58
2022/06/30 05:26:30;;;;;;;;;;;;;;;23.87;53.90;99354.88;2092518;28;20362;-58